EDT,Max TemperatureF,Mean TemperatureF,Min TemperatureF,Max Dew PointF,MeanDew PointF,Min DewpointF,Max Humidity, Mean Humidity, Min Humidity, Max Sea Level PressureIn, Mean Sea Level PressureIn, Min Sea Level PressureIn, Max VisibilityMiles, Mean VisibilityMiles, Min VisibilityMiles, Max Wind SpeedMPH, Mean Wind SpeedMPH, Max Gust SpeedMPH,PrecipitationIn, CloudCover, Events, WindDirDegrees
2014-3-1,33,18,3,27,13,-9,78,64,38,30.46,30.30,30.05,10,10,10,16,7,24,0.00,4,,192
2014-3-2,33,27,19,23,12,1,69,52,37,30.04,30.01,29.96,10,10,8,14,7,20,0.00,7,,295
2014-3-3,21,14,8,1,-5,-11,53,41,30,30.28,30.11,30.01,10,10,10,14,6,23,0.00,1,,306
2014-3-4,23,10,-2,16,1,-15,85,56,39,30.37,30.30,30.25,10,10,10,15,5,21,0.00,1,,265
2014-3-5,21,16,10,12,3,-9,92,60,38,30.50,30.36,30.28,10,8,1,16,7,21,0.02,4,,5
2014-3-6,28,16,3,7,-5,-11,79,43,19,30.62,30.55,30.51,10,10,10,7,4,,0.00,0,,298
2014-3-7,33,18,3,27,15,-2,100,76,46,30.51,30.28,29.98,10,10,10,13,4,21,0.00,0,,217
2014-3-8,46,30,15,30,22,12,100,70,42,29.97,29.79,29.68,10,10,10,13,3,18,0.00,1,,306
2014-3-9,33,27,21,14,6,0,58,41,27,29.92,29.87,29.83,10,10,10,17,7,21,0.00,0,,309
2014-3-10,32,26,21,25,16,-2,86,68,31,29.88,29.81,29.69,10,9,2,12,4,,0.00,5,,113
2014-3-11,46,39,32,36,31,25,100,77,56,29.71,29.59,29.51,10,8,2,15,8,22,0.04,6,,240
2014-3-12,39,32,26,36,30,25,100,87,70,29.75,29.56,29.11,10,8,2,28,5,40,1.14,6,,62
2014-3-13,30,21,12,28,12,3,93,76,58,29.79,29.32,29.02,10,6,1,25,12,38,0.05,6,,332
2014-3-14,35,19,3,27,9,-2,85,61,34,30.11,29.99,29.79,10,10,10,17,8,25,0.00,1,,239
2014-3-15,44,37,30,39,34,27,100,84,65,29.90,29.73,29.63,10,9,5,16,10,23,0.08,5,,217
2014-3-16,35,24,12,32,6,-8,100,47,34,30.21,29.98,29.74,10,10,3,25,13,34,0.00,1,,281
2014-3-17,24,16,8,-2,-5,-8,57,41,28,30.21,30.14,30.04,10,10,10,13,6,21,0.00,0,,304
2014-3-18,33,20,6,18,3,-8,86,48,25,30.38,30.30,30.17,10,10,10,10,4,,0.00,0,,287
2014-3-19,35,25,15,25,19,12,93,69,48,30.43,30.33,30.12,10,10,10,13,4,,0.00,3,,118
2014-3-20,44,38,30,43,35,25,100,90,70,30.11,29.70,29.48,10,7,1,23,10,29,0.52,7,,186
2014-3-21,39,34,28,28,22,18,93,61,45,29.94,29.73,29.63,10,10,3,25,11,32,0.01,4,,268
2014-3-22,37,29,21,36,25,18,100,76,56,30.00,29.85,29.64,10,10,2,18,6,24,0.02,3,,217
2014-3-23,37,26,14,27,13,-4,93,55,29,30.06,29.92,29.86,10,10,10,20,7,28,0.00,0,,284
2014-3-24,26,17,8,0,-3,-8,57,41,31,30.11,30.06,29.99,10,10,10,17,8,24,0.00,0,,308
2014-3-25,32,19,6,25,10,0,93,62,37,30.13,30.08,30.04,10,10,2,14,4,26,0.00,1,,197
2014-3-26,32,26,21,21,15,9,86,58,38,30.03,29.68,29.44,10,8,1,22,11,38,0.00,5,,360
2014-3-27,35,25,15,25,4,-6,65,39,25,30.24,30.11,29.75,10,10,10,24,15,34,0.00,1,,265
2014-3-28,44,38,33,43,34,25,100,80,65,30.22,30.06,29.92,10,9,3,17,8,28,0.00,7,,216
2014-3-29,50,41,32,43,36,30,100,81,54,30.27,30.18,29.96,10,8,0,14,8,20,0.04,4,,50
2014-3-30,37,35,33,36,34,30,100,94,87,30.16,29.86,29.72,10,6,2,24,16,32,1.43,8,,38
2014-3-31,35,34,32,30,28,27,87,79,70,29.98,29.83,29.72,10,9,4,20,13,34,0.01,8,,9